Time;durP1;ratioP1;P1;durP2;ratioP2;P2;SDS_P1;SDS_P2;PMS_P1;PMS_P2;Temp;Humidity;BMP_temperature;BMP_pressure;BME280_temperature;BME280_humidity;BME280_pressure;Samples;Min_cycle;Max_cycle;Signal;HPM_P1;HPM_P2
2023/08/25 00:02:02;;;;;;;7.53;4.40;;;22.70;31.50;;;;;;4990879;28;20507;-73
2023/08/25 00:04:29;;;;;;;7.10;4.43;;;22.70;31.40;;;;;;4992529;28;20470;-72
2023/08/25 00:06:55;;;;;;;5.97;4.50;;;22.70;31.20;;;;;;4988214;28;20476;-73
2023/08/25 00:09:22;;;;;;;7.93;4.07;;;22.70;31.30;;;;;;4988487;28;20469;-73
2023/08/25 00:11:49;;;;;;;8.60;4.57;;;22.70;31.20;;;;;;4992906;28;20503;-73
2023/08/25 00:14:17;;;;;;;7.60;4.57;;;22.70;31.20;;;;;;5103548;23;20488;-70
2023/08/25 00:16:44;;;;;;;9.17;5.10;;;22.70;31.20;;;;;;5002351;28;20464;-70
2023/08/25 00:19:10;;;;;;;7.13;3.80;;;22.80;30.70;;;;;;5007864;28;20483;-70
2023/08/25 00:21:37;;;;;;;8.77;4.37;;;22.70;30.80;;;;;;5010524;28;20467;-70
2023/08/25 00:24:04;;;;;;;7.13;3.90;;;22.70;30.70;;;;;;5007366;28;20460;-70
2023/08/25 00:26:32;;;;;;;6.90;4.70;;;22.70;30.90;;;;;;5006674;28;20471;-70
2023/08/25 00:28:59;;;;;;;9.53;4.33;;;22.70;30.50;;;;;;5011358;28;21053;-69
2023/08/25 00:31:27;;;;;;;8.90;3.93;;;22.70;30.60;;;;;;5026688;28;20469;-70
2023/08/25 00:33:53;;;;;;;9.33;4.20;;;22.70;30.30;;;;;;5030136;28;20478;-70
2023/08/25 00:36:20;;;;;;;9.70;3.77;;;22.70;30.10;;;;;;5029993;28;20986;-70
2023/08/25 00:38:47;;;;;;;11.90;4.83;;;22.70;29.70;;;;;;5037903;28;20485;-70
2023/08/25 00:41:14;;;;;;;8.30;3.70;;;22.70;29.20;;;;;;5032462;28;20468;-70
2023/08/25 00:43:40;;;;;;;11.20;3.53;;;22.70;29.40;;;;;;5029167;28;20467;-70
2023/08/25 00:46:08;;;;;;;6.30;3.53;;;22.70;29.30;;;;;;5036818;28;20467;-70
2023/08/25 00:48:37;;;;;;;7.70;3.90;;;22.70;29.20;;;;;;5035729;28;20537;-70
2023/08/25 00:51:05;;;;;;;6.83;3.80;;;22.70;29.20;;;;;;5032935;28;20944;-70
2023/08/25 00:53:32;;;;;;;5.80;3.40;;;22.70;29.00;;;;;;5033065;28;20485;-71
2023/08/25 00:55:59;;;;;;;13.50;4.33;;;22.70;29.00;;;;;;5039159;28;20463;-70
2023/08/25 00:58:26;;;;;;;5.73;3.27;;;22.70;28.90;;;;;;5038098;28;20870;-70
2023/08/25 01:00:54;;;;;;;6.20;2.80;;;22.60;28.40;;;;;;5022231;28;20995;-70
2023/08/25 01:03:21;;;;;;;8.10;3.40;;;22.60;28.10;;;;;;5027639;28;20824;-71
2023/08/25 01:05:50;;;;;;;8.87;3.80;;;22.60;28.10;;;;;;5021489;28;20460;-70
2023/08/25 01:08:18;;;;;;;6.53;3.17;;;22.60;28.10;;;;;;5034372;28;20485;-71
2023/08/25 01:10:52;;;;;;;6.40;3.30;;;22.60;28.00;;;;;;5033196;28;20982;-71
2023/08/25 01:13:27;;;;;;;6.10;3.70;;;22.60;28.20;;;;;;5030441;28;20475;-69
2023/08/25 01:15:55;;;;;;;6.63;3.30;;;22.60;28.30;;;;;;5035472;28;20527;-70
2023/08/25 01:18:28;;;;;;;6.90;3.63;;;22.60;28.30;;;;;;5029658;28;20934;-70
2023/08/25 01:20:57;;;;;;;8.00;3.63;;;22.60;28.40;;;;;;5027625;28;20462;-71
2023/08/25 01:23:36;;;;;;;9.07;3.23;;;22.50;28.50;;;;;;5026584;28;20455;-70
2023/08/25 01:26:04;;;;;;;7.33;3.30;;;22.50;28.80;;;;;;5034968;28;20462;-70
2023/08/25 01:28:31;;;;;;;6.40;3.20;;;22.50;28.60;;;;;;5018860;28;20492;-70
2023/08/25 01:30:59;;;;;;;5.63;2.97;;;22.50;28.50;;;;;;5030208;28;20546;-70
2023/08/25 01:33:27;;;;;;;9.93;3.20;;;22.50;28.50;;;;;;5024160;28;20761;-69
2023/08/25 01:36:05;;;;;;;9.23;3.30;;;22.50;28.40;;;;;;5026761;28;20471;-70
2023/08/25 01:38:38;;;;;;;6.77;3.30;;;22.40;28.50;;;;;;5033781;28;20490;-70
2023/08/25 01:41:10;;;;;;;8.00;3.67;;;22.40;28.40;;;;;;5039978;28;21028;-70
2023/08/25 01:43:39;;;;;;;7.03;3.77;;;22.40;28.80;;;;;;5033781;28;21019;-70
2023/08/25 01:46:09;;;;;;;9.80;3.60;;;22.30;28.90;;;;;;5029859;28;20525;-70
2023/08/25 01:48:36;;;;;;;7.83;3.17;;;22.30;29.20;;;;;;5030012;28;20482;-69
2023/08/25 01:51:03;;;;;;;6.10;3.60;;;22.30;29.30;;;;;;5029573;28;20462;-69
2023/08/25 01:53:31;;;;;;;6.40;3.40;;;22.30;29.30;;;;;;5030234;28;20731;-69
2023/08/25 01:55:57;;;;;;;6.87;3.40;;;22.30;29.30;;;;;;5037253;28;20459;-70
2023/08/25 01:58:25;;;;;;;8.13;3.60;;;22.40;29.20;;;;;;5027031;28;20483;-70
2023/08/25 02:00:52;;;;;;;6.33;2.80;;;22.30;29.00;;;;;;5033636;28;20476;-70
2023/08/25 02:03:19;;;;;;;5.10;2.83;;;22.30;28.80;;;;;;5028581;28;20462;-70
2023/08/25 02:05:46;;;;;;;17.33;3.63;;;22.40;28.70;;;;;;5039094;28;20484;-69
2023/08/25 02:08:13;;;;;;;8.83;3.47;;;22.40;28.60;;;;;;5033409;28;20898;-70
2023/08/25 02:10:40;;;;;;;7.60;3.70;;;22.40;28.40;;;;;;5028981;28;20458;-70
2023/08/25 02:13:06;;;;;;;7.23;2.90;;;22.40;28.20;;;;;;5031207;28;21065;-70
2023/08/25 02:15:35;;;;;;;7.90;3.90;;;22.50;28.10;;;;;;5031806;28;20473;-70
2023/08/25 02:18:02;;;;;;;8.03;3.20;;;22.50;27.90;;;;;;5024791;28;20487;-70
2023/08/25 02:20:28;;;;;;;6.20;3.40;;;22.50;27.70;;;;;;5034046;28;21253;-70
2023/08/25 02:22:55;;;;;;;6.90;2.93;;;22.50;27.60;;;;;;5025390;28;20471;-69
2023/08/25 02:25:22;;;;;;;11.83;3.80;;;22.50;27.20;;;;;;5031602;28;20463;-70
2023/08/25 02:27:48;;;;;;;6.50;2.87;;;22.50;27.30;;;;;;5023339;28;21208;-70
2023/08/25 02:30:15;;;;;;;9.40;3.80;;;22.50;27.10;;;;;;5032604;28;20607;-70
2023/08/25 02:32:43;;;;;;;8.07;3.43;;;22.50;27.20;;;;;;5037332;28;20511;-71
2023/08/25 02:35:10;;;;;;;5.93;2.80;;;22.40;27.30;;;;;;5033294;28;20482;-71
2023/08/25 02:37:37;;;;;;;9.80;3.10;;;22.40;27.40;;;;;;5030731;28;20989;-71
2023/08/25 02:40:04;;;;;;;7.33;3.17;;;22.40;27.50;;;;;;5030484;28;20478;-70
2023/08/25 02:42:30;;;;;;;5.47;3.13;;;22.40;27.60;;;;;;5027443;28;20967;-70
2023/08/25 02:44:57;;;;;;;7.10;3.00;;;22.40;27.60;;;;;;5030823;28;20462;-69
2023/08/25 02:47:24;;;;;;;7.30;3.00;;;22.40;27.40;;;;;;5026151;28;21268;-70
2023/08/25 02:49:52;;;;;;;6.00;3.30;;;22.30;27.60;;;;;;5034816;28;20468;-69
2023/08/25 02:52:19;;;;;;;7.50;3.20;;;22.30;27.80;;;;;;5028556;28;20470;-68
2023/08/25 02:54:47;;;;;;;6.63;2.90;;;22.30;28.00;;;;;;5032597;28;20510;-69
2023/08/25 02:57:14;;;;;;;7.40;3.60;;;22.30;28.00;;;;;;5027689;28;21027;-69
2023/08/25 02:59:40;;;;;;;6.43;3.00;;;22.30;27.90;;;;;;5032214;28;20478;-69
2023/08/25 03:02:07;;;;;;;6.47;2.70;;;22.30;27.80;;;;;;5011183;28;20486;-69
2023/08/25 03:04:34;;;;;;;11.83;3.73;;;22.40;27.40;;;;;;5006383;28;20467;-70
2023/08/25 03:07:02;;;;;;;5.83;2.90;;;22.40;27.50;;;;;;5003768;28;20463;-70
2023/08/25 03:09:29;;;;;;;8.80;3.63;;;22.40;27.70;;;;;;5006011;28;20475;-70
2023/08/25 03:11:55;;;;;;;7.97;3.67;;;22.30;27.80;;;;;;5004492;28;20994;-70
2023/08/25 03:14:26;;;;;;;6.40;3.23;;;22.30;28.00;;;;;;5002785;28;20471;-70
2023/08/25 03:16:53;;;;;;;4.80;2.47;;;22.40;28.00;;;;;;5003275;28;20468;-70
2023/08/25 03:19:19;;;;;;;5.93;3.20;;;22.40;27.60;;;;;;5002569;28;20984;-71
2023/08/25 03:21:46;;;;;;;6.30;2.57;;;22.30;27.60;;;;;;5003513;28;20479;-71
2023/08/25 03:24:14;;;;;;;6.03;3.27;;;22.40;27.60;;;;;;5004216;28;20479;-71
2023/08/25 03:26:41;;;;;;;5.53;2.93;;;22.40;27.50;;;;;;5009057;28;20517;-70
2023/08/25 03:29:08;;;;;;;7.67;2.83;;;22.40;27.60;;;;;;5004332;28;20487;-71
2023/08/25 03:31:35;;;;;;;7.53;3.20;;;22.30;27.50;;;;;;5019183;28;20544;-71
2023/08/25 03:34:02;;;;;;;7.77;3.50;;;22.30;27.60;;;;;;5030989;28;20482;-71
2023/08/25 03:36:30;;;;;;;6.37;2.90;;;22.30;27.80;;;;;;5024724;28;20459;-72
2023/08/25 03:38:56;;;;;;;7.70;2.40;;;22.20;27.80;;;;;;5026612;28;20532;-70
2023/08/25 03:41:24;;;;;;;6.93;2.77;;;22.20;27.90;;;;;;5026780;28;20935;-70
2023/08/25 03:43:51;;;;;;;6.90;3.37;;;22.30;27.80;;;;;;5031415;28;20450;-71
2023/08/25 03:46:18;;;;;;;10.70;3.50;;;22.20;27.80;;;;;;5026481;28;20496;-70
2023/08/25 03:48:44;;;;;;;6.23;3.10;;;22.20;27.70;;;;;;5024922;28;20486;-71
2023/08/25 03:51:11;;;;;;;5.60;2.77;;;22.20;27.80;;;;;;5026665;28;20458;-71
2023/08/25 03:53:38;;;;;;;4.87;2.80;;;22.20;28.10;;;;;;5029461;28;20464;-71
2023/08/25 03:56:05;;;;;;;5.30;3.10;;;22.10;28.20;;;;;;5029256;28;20462;-71
2023/08/25 03:58:33;;;;;;;5.20;2.83;;;22.10;28.40;;;;;;5025403;28;20490;-71
2023/08/25 04:01:00;;;;;;;6.37;3.20;;;22.00;28.60;;;;;;5028322;28;20482;-71
2023/08/25 04:03:26;;;;;;;6.00;3.67;;;22.00;28.50;;;;;;5027485;28;20475;-70
2023/08/25 04:05:53;;;;;;;9.10;3.77;;;22.00;28.60;;;;;;5028535;28;20494;-71
2023/08/25 04:08:20;;;;;;;6.87;3.37;;;22.00;28.70;;;;;;5025657;28;20482;-71
2023/08/25 04:10:47;;;;;;;4.63;2.83;;;22.00;28.70;;;;;;5029541;28;20458;-71
2023/08/25 04:13:14;;;;;;;7.03;3.37;;;22.00;28.70;;;;;;5026622;28;20873;-71
2023/08/25 04:15:42;;;;;;;7.40;3.40;;;21.90;28.70;;;;;;5029043;28;20505;-71
2023/08/25 04:18:09;;;;;;;4.90;2.80;;;22.00;28.70;;;;;;5020871;28;20492;-71
2023/08/25 04:20:35;;;;;;;5.53;3.00;;;21.90;28.70;;;;;;5020592;28;20491;-70
2023/08/25 04:23:03;;;;;;;6.67;2.90;;;21.90;28.70;;;;;;5025259;28;20495;-70
2023/08/25 04:25:30;;;;;;;6.83;2.90;;;21.90;28.70;;;;;;5024369;28;20486;-71
2023/08/25 04:27:57;;;;;;;6.47;3.17;;;21.90;28.60;;;;;;5026685;28;20538;-70
2023/08/25 04:30:24;;;;;;;5.27;2.80;;;21.90;28.50;;;;;;5026020;28;20473;-70
2023/08/25 04:32:53;;;;;;;6.00;2.87;;;21.90;28.50;;;;;;5007817;28;20473;-70
2023/08/25 04:35:20;;;;;;;10.13;3.40;;;21.90;28.20;;;;;;5001655;28;20485;-70
2023/08/25 04:37:48;;;;;;;4.80;2.50;;;21.90;28.30;;;;;;5004968;28;20502;-70
2023/08/25 04:40:15;;;;;;;8.90;3.07;;;21.90;28.30;;;;;;5004430;28;20473;-70
2023/08/25 04:42:42;;;;;;;7.27;3.60;;;21.90;28.50;;;;;;5001885;28;20494;-69
2023/08/25 04:45:10;;;;;;;5.53;3.27;;;21.80;28.40;;;;;;5007065;28;20459;-70
2023/08/25 04:47:37;;;;;;;5.30;2.63;;;21.80;28.50;;;;;;5010030;28;20487;-70
2023/08/25 04:50:08;;;;;;;7.03;3.40;;;21.80;28.60;;;;;;5009104;28;20876;-70
2023/08/25 04:52:36;;;;;;;5.90;3.07;;;21.80;29.10;;;;;;5008334;28;20468;-70
2023/08/25 04:55:04;;;;;;;6.93;3.03;;;21.70;29.50;;;;;;5004722;28;20495;-70
2023/08/25 04:57:31;;;;;;;8.33;3.40;;;21.70;29.70;;;;;;5003734;28;21054;-73
2023/08/25 04:59:58;;;;;;;5.90;3.10;;;21.70;30.00;;;;;;5005753;28;20471;-73
2023/08/25 05:02:24;;;;;;;7.90;3.43;;;21.70;30.20;;;;;;5022168;28;20990;-72
2023/08/25 05:04:51;;;;;;;6.27;3.13;;;21.60;30.40;;;;;;5021808;28;20470;-75
2023/08/25 05:07:19;;;;;;;8.93;4.17;;;21.60;30.50;;;;;;5022340;28;20490;-74
2023/08/25 05:09:47;;;;;;;5.30;3.07;;;21.70;30.50;;;;;;5027053;28;20463;-74
2023/08/25 05:12:13;;;;;;;5.50;3.03;;;21.70;30.60;;;;;;5023198;28;20475;-73
2023/08/25 05:14:40;;;;;;;6.60;3.40;;;21.70;30.80;;;;;;5023804;28;20489;-74
2023/08/25 05:17:07;;;;;;;6.10;3.60;;;21.60;31.00;;;;;;5020693;28;20463;-74
2023/08/25 05:19:34;;;;;;;8.50;4.23;;;21.60;31.00;;;;;;5016690;28;20455;-74
2023/08/25 05:22:00;;;;;;;5.30;3.00;;;21.60;31.20;;;;;;5021116;28;20462;-73
2023/08/25 05:24:29;;;;;;;7.43;3.70;;;21.70;31.10;;;;;;5017417;28;20462;-74
2023/08/25 05:26:56;;;;;;;11.20;4.10;;;21.70;31.00;;;;;;5028418;28;20459;-73
2023/08/25 05:29:24;;;;;;;5.60;3.10;;;21.80;30.80;;;;;;5028580;28;20451;-73
2023/08/25 05:31:51;;;;;;;6.30;3.60;;;21.90;30.70;;;;;;5025439;28;20524;-73
2023/08/25 05:34:18;;;;;;;5.93;3.10;;;22.10;30.90;;;;;;5027681;28;20483;-73
2023/08/25 05:36:45;;;;;;;6.13;2.93;;;22.50;30.40;;;;;;5025023;28;20468;-72
2023/08/25 05:39:12;;;;;;;6.27;3.23;;;22.90;29.60;;;;;;5023562;28;20490;-72
2023/08/25 05:41:42;;;;;;;6.27;3.10;;;23.40;27.90;;;;;;5023789;28;20443;-69
2023/08/25 05:44:08;;;;;;;5.93;2.73;;;24.00;26.30;;;;;;5024944;28;20451;-69
2023/08/25 05:46:35;;;;;;;6.87;3.03;;;24.90;23.40;;;;;;5022154;28;20463;-67
2023/08/25 05:49:02;;;;;;;9.93;3.30;;;25.90;19.70;;;;;;5021265;28;20848;-67
2023/08/25 05:51:29;;;;;;;6.50;2.60;;;26.90;17.10;;;;;;5025443;28;20470;-67
2023/08/25 05:53:55;;;;;;;5.50;2.43;;;27.60;15.00;;;;;;5026468;28;20471;-68
2023/08/25 05:56:22;;;;;;;4.70;2.47;;;28.60;12.60;;;;;;5025469;28;20490;-67
2023/08/25 05:58:50;;;;;;;4.73;2.50;;;29.20;10.80;;;;;;5026301;28;20488;-68
2023/08/25 06:01:17;;;;;;;6.43;2.40;;;30.30;9.00;;;;;;5024149;28;20473;-68
2023/08/25 06:03:44;;;;;;;5.80;2.50;;;31.10;7.00;;;;;;5030333;28;21019;-68
2023/08/25 06:06:12;;;;;;;5.87;2.60;;;32.30;5.00;;;;;;5021539;28;20474;-68
2023/08/25 06:08:38;;;;;;;6.97;2.90;;;33.30;2.50;;;;;;5020398;28;20482;-68
2023/08/25 06:11:07;;;;;;;5.77;2.20;;;34.10;1.00;;;;;;5020146;28;20459;-68
2023/08/25 06:13:34;;;;;;;7.33;2.60;;;34.20;1.00;;;;;;5021460;28;21065;-68
2023/08/25 06:16:02;;;;;;;5.20;2.50;;;33.70;1.00;;;;;;5027787;28;20478;-67
2023/08/25 06:18:29;;;;;;;5.67;2.57;;;32.90;1.00;;;;;;5020835;28;20484;-69
2023/08/25 06:20:56;;;;;;;4.83;2.50;;;32.30;1.00;;;;;;5020104;28;20463;-68
2023/08/25 06:23:23;;;;;;;8.80;3.10;;;31.90;1.20;;;;;;5027130;28;20474;-69
2023/08/25 06:25:49;;;;;;;6.10;2.60;;;31.50;2.30;;;;;;5016805;28;20464;-69
2023/08/25 06:28:16;;;;;;;4.20;2.47;;;32.50;1.80;;;;;;5025376;28;21335;-69
2023/08/25 06:30:43;;;;;;;4.70;2.23;;;34.40;1.00;;;;;;5026235;28;20468;-69
2023/08/25 06:33:11;;;;;;;5.93;2.40;;;36.30;1.00;;;;;;5006432;28;20475;-69
2023/08/25 06:35:38;;;;;;;7.83;2.47;;;37.90;1.00;;;;;;5004891;28;20476;-69
2023/08/25 06:38:05;;;;;;;8.40;3.20;;;39.30;1.00;;;;;;5005741;28;20487;-69
2023/08/25 06:40:34;;;;;;;5.70;2.70;;;40.50;1.00;;;;;;5004980;28;20844;-69
2023/08/25 06:43:02;;;;;;;5.80;3.27;;;41.40;1.00;;;;;;5007455;28;20513;-69
2023/08/25 06:45:28;;;;;;;6.33;2.60;;;41.60;1.00;;;;;;5008166;28;20452;-68
2023/08/25 06:47:55;;;;;;;6.00;2.07;;;41.80;1.00;;;;;;5006646;28;20496;-69
2023/08/25 06:50:23;;;;;;;6.73;2.40;;;41.60;1.00;;;;;;5007535;28;20456;-69
2023/08/25 06:52:50;;;;;;;5.27;2.40;;;41.40;1.00;;;;;;5008749;28;20456;-69
2023/08/25 06:55:18;;;;;;;6.40;3.30;;;41.80;1.00;;;;;;5008057;28;20483;-69
2023/08/25 06:57:45;;;;;;;5.50;2.70;;;41.70;1.00;;;;;;5002427;28;20488;-69
2023/08/25 07:00:13;;;;;;;4.90;2.60;;;41.10;1.00;;;;;;5004332;28;20467;-69
2023/08/25 07:02:41;;;;;;;6.80;2.67;;;39.70;1.00;;;;;;5031285;28;20463;-69
2023/08/25 07:05:08;;;;;;;6.87;3.27;;;38.50;1.00;;;;;;5031933;28;20575;-69
2023/08/25 07:07:37;;;;;;;6.63;2.40;;;37.70;1.00;;;;;;5035918;28;21105;-69
2023/08/25 07:10:04;;;;;;;6.37;2.47;;;37.20;1.00;;;;;;5031626;28;20467;-71
2023/08/25 07:12:31;;;;;;;5.53;3.03;;;36.70;1.00;;;;;;5040369;28;20458;-69
2023/08/25 07:14:58;;;;;;;7.90;3.07;;;36.30;1.00;;;;;;5028031;28;21004;-68
2023/08/25 07:17:25;;;;;;;6.90;2.80;;;36.20;1.00;;;;;;5033004;28;20502;-68
2023/08/25 07:19:51;;;;;;;5.50;2.90;;;36.30;1.00;;;;;;5030401;28;20959;-69
2023/08/25 07:22:18;;;;;;;6.17;2.90;;;35.90;1.00;;;;;;5029814;28;20457;-69
2023/08/25 07:24:47;;;;;;;6.87;3.00;;;35.00;1.00;;;;;;5032322;28;20495;-69
2023/08/25 07:27:13;;;;;;;5.67;3.17;;;33.80;1.00;;;;;;5031884;28;20544;-69
2023/08/25 07:29:40;;;;;;;5.20;2.80;;;32.60;1.00;;;;;;5025071;28;20475;-69
2023/08/25 07:32:08;;;;;;;7.90;3.33;;;31.60;1.00;;;;;;5020674;28;20479;-69
2023/08/25 07:34:36;;;;;;;7.80;3.50;;;30.70;2.00;;;;;;5024846;28;20970;-68
2023/08/25 07:37:02;;;;;;;7.03;2.77;;;30.10;3.90;;;;;;5025166;28;20471;-69
2023/08/25 07:39:29;;;;;;;6.40;3.20;;;29.60;4.80;;;;;;5020702;28;20467;-69
2023/08/25 07:41:57;;;;;;;6.30;3.27;;;29.10;5.40;;;;;;5023641;28;20459;-69
2023/08/25 07:44:24;;;;;;;5.70;3.07;;;28.60;6.10;;;;;;5025386;28;20458;-69
2023/08/25 07:46:51;;;;;;;5.20;3.50;;;28.20;7.30;;;;;;5028362;28;20826;-68
2023/08/25 07:49:18;;;;;;;6.87;3.43;;;28.00;8.60;;;;;;5026861;28;20467;-68
2023/08/25 07:51:44;;;;;;;6.13;3.30;;;27.70;8.80;;;;;;5032126;28;20455;-68
2023/08/25 07:54:11;;;;;;;8.47;3.07;;;27.40;8.70;;;;;;5030433;28;20458;-68
2023/08/25 07:56:38;;;;;;;7.03;3.73;;;27.00;9.10;;;;;;5031538;28;20486;-68
2023/08/25 07:59:06;;;;;;;8.13;3.83;;;26.70;10.00;;;;;;5029496;28;20888;-68
2023/08/25 08:01:33;;;;;;;7.50;3.47;;;26.40;10.70;;;;;;5029559;28;20827;-68
2023/08/25 08:04:00;;;;;;;5.50;3.37;;;26.10;13.30;;;;;;5030023;28;20462;-68
2023/08/25 08:06:26;;;;;;;8.87;3.87;;;25.80;13.50;;;;;;5031598;28;20642;-68
2023/08/25 08:08:53;;;;;;;5.40;4.20;;;25.60;14.70;;;;;;5029940;28;20522;-68
2023/08/25 08:11:20;;;;;;;6.53;3.70;;;25.40;14.50;;;;;;5029686;28;20477;-68
2023/08/25 08:13:47;;;;;;;6.10;3.70;;;25.20;15.20;;;;;;5029800;28;20959;-69
2023/08/25 08:16:15;;;;;;;6.07;3.80;;;25.10;15.40;;;;;;5028572;28;20491;-68
2023/08/25 08:18:42;;;;;;;6.03;4.00;;;25.10;16.50;;;;;;5029229;28;20489;-68
2023/08/25 08:21:09;;;;;;;7.50;4.10;;;25.20;16.40;;;;;;5030662;28;20462;-68
2023/08/25 08:23:35;;;;;;;6.10;3.83;;;25.20;16.40;;;;;;5029365;28;20474;-68
2023/08/25 08:26:03;;;;;;;6.30;3.30;;;25.20;16.20;;;;;;5029785;28;20471;-68
2023/08/25 08:28:29;;;;;;;6.83;4.00;;;25.10;17.00;;;;;;5030636;28;20479;-68
2023/08/25 08:30:58;;;;;;;8.73;3.93;;;25.00;18.00;;;;;;5029647;28;20479;-69
2023/08/25 08:33:26;;;;;;;6.00;4.10;;;24.90;18.80;;;;;;5033971;28;20467;-68
2023/08/25 08:35:53;;;;;;;7.23;3.87;;;24.80;19.30;;;;;;5029219;28;20475;-69
2023/08/25 08:38:20;;;;;;;5.97;3.83;;;24.70;19.60;;;;;;5037658;28;20504;-70
2023/08/25 08:40:49;;;;;;;7.37;3.67;;;24.70;20.30;;;;;;5034929;28;20459;-68
2023/08/25 08:43:18;;;;;;;6.60;3.97;;;24.70;20.90;;;;;;5040111;28;20486;-68
2023/08/25 08:45:48;;;;;;;6.03;3.90;;;24.70;21.60;;;;;;5035658;28;20463;-68
2023/08/25 08:48:17;;;;;;;6.30;3.20;;;24.80;20.80;;;;;;5036443;28;20473;-69
2023/08/25 08:50:45;;;;;;;8.73;4.40;;;24.80;20.80;;;;;;5039321;28;20458;-69
2023/08/25 08:53:14;;;;;;;5.90;3.20;;;24.90;20.30;;;;;;5035309;28;20474;-69
2023/08/25 08:55:43;;;;;;;6.40;3.10;;;25.40;20.30;;;;;;5037818;28;20910;-69
2023/08/25 08:58:10;;;;;;;4.70;2.90;;;26.10;18.60;;;;;;5030943;28;20523;-68
2023/08/25 09:00:36;;;;;;;5.07;2.93;;;26.30;16.10;;;;;;5040596;28;21012;-68
2023/08/25 09:03:13;;;;;;;5.30;2.87;;;26.30;15.30;;;;;;5030771;28;20466;-69
2023/08/25 09:05:41;;;;;;;6.53;2.63;;;26.40;15.50;;;;;;5037946;28;20878;-69
2023/08/25 09:08:12;;;;;;;4.70;2.50;;;28.10;13.30;;;;;;5039583;28;20997;-68
2023/08/25 09:10:38;;;;;;;7.60;3.13;;;29.40;9.60;;;;;;5032694;28;20470;-68
2023/08/25 09:13:06;;;;;;;5.20;2.37;;;31.00;6.60;;;;;;5035278;28;20466;-68
2023/08/25 09:15:34;;;;;;;3.90;2.00;;;32.50;2.10;;;;;;5038909;28;20478;-69
2023/08/25 09:18:02;;;;;;;4.47;2.23;;;33.80;1.00;;;;;;5039662;28;20482;-69
2023/08/25 09:20:29;;;;;;;5.07;2.20;;;34.20;1.00;;;;;;5033682;28;20512;-69
2023/08/25 09:22:56;;;;;;;4.33;2.07;;;34.10;1.00;;;;;;5037323;28;20465;-68
2023/08/25 09:25:25;;;;;;;5.30;2.27;;;33.90;1.00;;;;;;5038726;28;20463;-69
2023/08/25 09:27:56;;;;;;;5.63;2.57;;;34.70;1.00;;;;;;5038104;28;20474;-69
2023/08/25 09:30:34;;;;;;;5.13;2.03;;;35.20;1.00;;;;;;5031707;28;20454;-69
2023/08/25 09:33:05;;;;;;;6.50;2.33;;;36.00;1.00;;;;;;5004241;28;20472;-69
2023/08/25 09:35:32;;;;;;;4.60;2.20;;;36.60;1.00;;;;;;5000482;28;20480;-69
2023/08/25 09:37:59;;;;;;;4.30;1.77;;;37.60;1.00;;;;;;5000627;28;20479;-69
2023/08/25 09:40:28;;;;;;;4.17;1.60;;;38.10;1.00;;;;;;5002389;28;20498;-69
2023/08/25 09:42:59;;;;;;;4.33;2.03;;;38.80;1.00;;;;;;5000235;28;20467;-69
2023/08/25 09:45:28;;;;;;;7.00;2.67;;;39.60;1.00;;;;;;4998324;28;20469;-69
2023/08/25 09:47:55;;;;;;;5.13;2.27;;;39.20;1.00;;;;;;5007403;28;20483;-69
2023/08/25 09:50:22;;;;;;;4.07;2.03;;;38.70;1.00;;;;;;5002988;28;20459;-68
2023/08/25 09:52:53;;;;;;;7.33;2.93;;;39.50;1.00;;;;;;5001484;28;20498;-69
2023/08/25 09:55:21;;;;;;;4.17;2.10;;;40.90;1.00;;;;;;4999239;28;20479;-69
2023/08/25 09:57:50;;;;;;;4.67;2.17;;;41.50;1.00;;;;;;5001449;28;20486;-69
2023/08/25 10:00:19;;;;;;;4.43;2.13;;;42.40;1.00;;;;;;4996981;28;20852;-68
2023/08/25 10:02:46;;;;;;;4.80;1.83;;;42.50;1.00;;;;;;4998648;28;20478;-68
2023/08/25 10:05:13;;;;;;;3.87;1.50;;;43.70;1.00;;;;;;5000402;28;20464;-68
2023/08/25 10:07:42;;;;;;;4.20;2.00;;;45.10;1.00;;;;;;5004129;28;21224;-68
2023/08/25 10:10:10;;;;;;;4.93;2.43;;;45.60;1.00;;;;;;5008684;28;20460;-69
2023/08/25 10:12:38;;;;;;;4.40;2.07;;;45.10;1.00;;;;;;5006648;28;21168;-68
2023/08/25 10:15:09;;;;;;;5.63;2.20;;;44.50;1.00;;;;;;5004720;28;21281;-68
2023/08/25 10:17:37;;;;;;;5.03;2.37;;;44.70;1.00;;;;;;5005735;28;20565;-68
2023/08/25 10:20:08;;;;;;;3.20;1.60;;;43.30;1.00;;;;;;5005422;28;20483;-68
2023/08/25 10:22:35;;;;;;;4.40;2.07;;;41.80;1.00;;;;;;5006346;28;20460;-68
2023/08/25 10:25:03;;;;;;;4.37;2.20;;;40.30;1.00;;;;;;5004281;28;20464;-68
2023/08/25 10:27:31;;;;;;;4.50;2.50;;;39.40;1.00;;;;;;5006514;28;20481;-69
2023/08/25 10:30:00;;;;;;;7.20;2.20;;;38.30;1.00;;;;;;5006738;28;20960;-69
2023/08/25 10:32:48;;;;;;;4.30;2.17;;;37.10;1.00;;;;;;5024952;28;20470;-69
2023/08/25 10:35:14;;;;;;;6.37;2.93;;;36.00;1.00;;;;;;5023877;28;20475;-69
2023/08/25 10:37:41;;;;;;;5.10;2.53;;;35.20;1.00;;;;;;5023858;28;20486;-69
2023/08/25 10:40:10;;;;;;;5.23;3.00;;;34.50;1.00;;;;;;5026524;28;20481;-68
2023/08/25 10:42:37;;;;;;;4.43;2.23;;;33.80;1.00;;;;;;5027956;28;20459;-69
2023/08/25 10:45:06;;;;;;;4.23;2.20;;;33.30;1.00;;;;;;5026660;28;20482;-69
2023/08/25 10:47:33;;;;;;;3.90;2.40;;;32.70;1.00;;;;;;5006013;23;20583;-73
2023/08/25 10:50:04;;;;;;;3.93;2.47;;;32.20;1.00;;;;;;4982919;28;21127;-73
2023/08/25 10:52:31;;;;;;;8.40;2.47;;;31.80;1.00;;;;;;4988761;28;20460;-73
2023/08/25 10:54:57;;;;;;;4.80;2.80;;;31.50;1.00;;;;;;4992014;28;20946;-73
2023/08/25 10:57:41;;;;;;;4.33;2.60;;;31.20;1.00;;;;;;4992464;28;20484;-73
2023/08/25 11:00:29;;;;;;;6.07;2.80;;;31.00;1.00;;;;;;4986528;28;21180;-72
2023/08/25 11:02:56;;;;;;;4.70;2.50;;;30.90;1.00;;;;;;4990445;28;20465;-73
2023/08/25 11:05:43;;;;;;;4.57;2.40;;;31.00;1.00;;;;;;4988763;28;21187;-73
2023/08/25 11:08:29;;;;;;;5.30;2.63;;;31.30;1.00;;;;;;4991133;28;20483;-73
2023/08/25 11:11:13;;;;;;;7.93;2.67;;;31.50;1.00;;;;;;4989573;28;20472;-73
2023/08/25 11:13:41;;;;;;;5.00;3.00;;;31.50;1.00;;;;;;4992428;28;20518;-73
2023/08/25 11:16:09;;;;;;;5.17;2.17;;;31.60;1.00;;;;;;4990225;28;20484;-73
2023/08/25 11:18:36;;;;;;;5.83;2.20;;;31.70;1.00;;;;;;4987224;28;20500;-72
2023/08/25 11:21:04;;;;;;;4.43;2.50;;;31.60;1.00;;;;;;4989237;28;20491;-73
2023/08/25 11:23:38;;;;;;;5.23;2.40;;;31.70;1.00;;;;;;4991340;28;21331;-72
2023/08/25 11:26:07;;;;;;;4.30;2.27;;;31.70;1.00;;;;;;4994563;28;20461;-72
2023/08/25 11:28:34;;;;;;;4.80;1.90;;;31.80;1.00;;;;;;4992620;28;20578;-73
2023/08/25 11:31:03;;;;;;;4.20;2.20;;;32.00;1.00;;;;;;4985949;28;20496;-73
2023/08/25 11:33:31;;;;;;;4.77;2.20;;;32.10;1.00;;;;;;4976230;28;20549;-72
2023/08/25 11:35:58;;;;;;;4.27;2.10;;;32.00;1.00;;;;;;4972860;28;20489;-72
2023/08/25 11:38:26;;;;;;;3.80;2.27;;;32.00;1.00;;;;;;4975538;28;20907;-74
2023/08/25 11:40:55;;;;;;;6.13;3.00;;;31.80;1.00;;;;;;4975233;28;20461;-73
2023/08/25 11:43:22;;;;;;;6.80;2.30;;;31.70;1.00;;;;;;4974893;28;20462;-73
2023/08/25 11:45:49;;;;;;;4.93;2.20;;;31.60;1.00;;;;;;4974171;28;20470;-73
2023/08/25 11:48:15;;;;;;;4.07;2.40;;;31.50;1.00;;;;;;4972024;28;20485;-72
2023/08/25 11:50:42;;;;;;;6.00;2.40;;;31.30;1.00;;;;;;4976991;28;20553;-72
2023/08/25 11:53:09;;;;;;;4.90;2.10;;;31.30;1.00;;;;;;4974561;28;20461;-72
2023/08/25 11:55:37;;;;;;;5.73;2.80;;;31.20;1.00;;;;;;4976279;28;20458;-73
2023/08/25 11:58:09;;;;;;;6.40;2.30;;;31.10;1.00;;;;;;4973094;28;20496;-73
2023/08/25 12:00:39;;;;;;;4.30;2.13;;;31.00;1.00;;;;;;4978896;28;20460;-73
2023/08/25 12:03:06;;;;;;;3.90;2.20;;;31.00;1.00;;;;;;4991492;28;20473;-73
2023/08/25 12:05:35;;;;;;;3.70;2.00;;;31.00;1.00;;;;;;4993779;28;20524;-73
2023/08/25 12:08:03;;;;;;;4.57;2.20;;;30.90;1.00;;;;;;4991792;28;20496;-74
2023/08/25 12:10:34;;;;;;;4.70;2.37;;;30.90;1.00;;;;;;4984204;28;20465;-73
2023/08/25 12:13:02;;;;;;;4.53;2.53;;;30.90;1.00;;;;;;4988069;28;20497;-74
2023/08/25 12:15:40;;;;;;;4.00;2.10;;;30.80;1.00;;;;;;4986140;28;20465;-74
2023/08/25 12:18:07;;;;;;;5.63;2.63;;;30.70;1.00;;;;;;4987303;28;20488;-75
2023/08/25 12:20:33;;;;;;;4.20;2.20;;;30.70;1.00;;;;;;4982020;28;20982;-74
2023/08/25 12:23:01;;;;;;;4.13;2.13;;;30.70;1.00;;;;;;4986017;28;21129;-74
2023/08/25 12:25:30;;;;;;;4.33;2.17;;;30.60;1.00;;;;;;4988551;28;20515;-72
2023/08/25 12:27:56;;;;;;;4.07;1.80;;;30.40;1.00;;;;;;4990114;28;20575;-73
2023/08/25 12:30:25;;;;;;;4.20;2.17;;;30.40;1.00;;;;;;4986543;28;20472;-72
2023/08/25 12:32:52;;;;;;;3.87;2.20;;;30.20;1.00;;;;;;4984402;28;20466;-72
2023/08/25 12:35:19;;;;;;;7.43;2.10;;;30.20;1.00;;;;;;4983896;28;20479;-72
2023/08/25 12:37:46;;;;;;;7.50;2.80;;;30.20;1.00;;;;;;4989927;28;20502;-73
2023/08/25 12:40:13;;;;;;;4.17;2.17;;;30.20;1.00;;;;;;4988111;28;20611;-73
2023/08/25 12:42:39;;;;;;;4.47;2.43;;;30.20;1.00;;;;;;4987288;28;20547;-72
2023/08/25 12:45:08;;;;;;;5.50;2.57;;;30.20;1.00;;;;;;4985463;28;20901;-72
2023/08/25 12:47:36;;;;;;;4.77;2.67;;;30.00;1.00;;;;;;4985338;28;20486;-73
2023/08/25 12:50:02;;;;;;;5.17;2.60;;;29.90;1.00;;;;;;4990108;28;20460;-72
2023/08/25 12:52:33;;;;;;;5.17;2.50;;;29.80;1.00;;;;;;4987202;28;20588;-73
2023/08/25 12:54:59;;;;;;;6.30;3.47;;;29.70;1.00;;;;;;4985038;28;20515;-72